Ida — C4CZ2 — position and weather

sailwx.info

Track history (hours):
 
Tides and Currents Weather Stations Pressure Air Temp Water Temp Dewpoint Dewpoint Depression Visibility Wind Speed Wind Dir Waves Ship Positions

Ida

Last reported at 2016-May-31 13:33 UTC. Time now 2016-May-31 14:15 UTC.
Position N 52°24' E 004°52'.

Length 82 m; draft 3 m.

Type: Cargo ship. MMSI: 210319000.

Date/timePositionNaut miles runAvg speedWind from/ knotsBaromVisibWave heightAir tempDewpointWater temp
2016-May-31 13:33N 52°24' E 004°52'0 0.0
2016-May-31 12:33N 52°24' E 004°52'0 0.0
2016-May-31 11:33N 52°24' E 004°52'0 0.0
2016-May-31 10:33N 52°24' E 004°52'0 0.0
2016-May-31 09:33N 52°24' E 004°52'0 0.0
2016-May-31 08:33N 52°24' E 004°52'0 0.0
2016-May-31 07:33N 52°24' E 004°52'6 6.2
2016-May-31 06:34N 52°26' E 004°43'12 6.1
2016-May-31 04:33N 52°28' E 004°23'8 7.8
2016-May-31 03:33N 52°29' E 004°10'9 3.9
2016-May-31 01:15N 52°35' E 003°59'7 4.0
2016-May-30 23:29N 52°28' E 003°54'9 3.7
2016-May-30 21:03N 52°19' E 003°52'3 3.8
2016-May-30 20:23N 52°17' E 003°52'3 3.5
2016-May-30 19:29N 52°14' E 003°53'3 3.1
2016-May-30 18:32N 52°11' E 003°54'3 2.7
2016-May-30 17:33N 52°08' E 003°55'3 2.8
2016-May-30 16:33N 52°05' E 003°56'3 3.3
2016-May-30 15:34N 52°03' E 003°58'5 4.7
2016-May-30 14:33N 51°59' E 004°04'1010.5
2016-May-30 13:33N 51°54' E 004°18'6 5.5
2016-May-30 12:32N 51°53' E 004°27'0 0.0
2016-May-30 11:29N 51°53' E 004°27'0 0.0
2016-May-30 10:32N 51°53' E 004°27'0 0.0
2016-May-30 09:32N 51°53' E 004°27'0 0.0
2016-May-30 08:32N 51°53' E 004°28'0 0.0
2016-May-30 07:32N 51°53' E 004°27'0 0.0
2016-May-30 06:32N 51°53' E 004°27'0 0.0
2016-May-30 05:29N 51°53' E 004°27'0 0.0
2016-May-30 04:32N 51°53' E 004°27'0 0.0
2016-May-30 03:32N 51°53' E 004°27'0 0.0
2016-May-30 02:32N 51°53' E 004°27'0 0.0
2016-May-30 01:32N 51°53' E 004°27'0 0.0
2016-May-30 00:32N 51°53' E 004°27'0 0.0
2016-May-29 23:26N 51°53' E 004°27'0 0.0
2016-May-29 22:29N 51°53' E 004°28'0 0.0
2016-May-29 21:29N 51°53' E 004°27'0 0.0
2016-May-29 20:32N 51°53' E 004°27'0 0.0
2016-May-29 19:32N 51°53' E 004°27'0 0.0
2016-May-29 18:32N 51°53' E 004°27'0 0.0
2016-May-29 17:32N 51°53' E 004°27'0 0.0
2016-May-29 16:32N 51°53' E 004°27'0 0.0
2016-May-29 15:32N 51°53' E 004°27'0 0.0
2016-May-29 14:26N 51°53' E 004°27'0 0.0
2016-May-29 13:26N 51°53' E 004°27'0 0.0
2016-May-29 12:29N 51°53' E 004°27'0 0.0
2016-May-29 11:32N 51°53' E 004°27'0 0.0
2016-May-29 10:23N 51°53' E 004°27'0 0.0
2016-May-29 09:32N 51°53' E 004°27'0 0.0
2016-May-29 08:32N 51°53' E 004°27'0 0.0
2016-May-29 07:32N 51°53' E 004°27'0 0.0
2016-May-29 06:29N 51°53' E 004°27'0 0.0
2016-May-29 05:32N 51°53' E 004°27'0 0.0
2016-May-29 04:32N 51°53' E 004°27'0 0.0
2016-May-29 03:26N 51°53' E 004°27'0 0.0
2016-May-29 02:32N 51°53' E 004°27'0 0.0
2016-May-29 01:32N 51°53' E 004°27'0 0.0
2016-May-29 00:32N 51°53' E 004°27'0 0.0
2016-May-28 23:29N 51°53' E 004°27'0 0.0
2016-May-28 22:32N 51°53' E 004°27'0 0.0
2016-May-28 21:29N 51°53' E 004°27'0 0.0
2016-May-28 20:32N 51°53' E 004°27'0 0.0
2016-May-28 19:32N 51°53' E 004°27'0 0.0
2016-May-28 18:26N 51°53' E 004°27'0 0.0
2016-May-28 17:32N 51°53' E 004°27'0 0.0
2016-May-28 16:29N 51°53' E 004°27'0 0.0
2016-May-28 15:29N 51°53' E 004°27'0 0.0
2016-May-28 14:32N 51°53' E 004°27'0 0.0
2016-May-28 13:32N 51°53' E 004°27'0 0.0
2016-May-28 12:32N 51°53' E 004°27'0 0.0
2016-May-28 11:32N 51°53' E 004°27'0 0.0
2016-May-28 10:32N 51°53' E 004°27'0 0.0
2016-May-28 09:32N 51°53' E 004°27'0 0.0
2016-May-28 08:32N 51°53' E 004°27'0 0.0
2016-May-28 07:29N 51°53' E 004°27'0 0.0
2016-May-28 06:32N 51°53' E 004°27'0 0.0
2016-May-28 05:32N 51°53' E 004°27'0 0.0
2016-May-28 04:32N 51°53' E 004°27'0 0.0
2016-May-28 03:29N 51°53' E 004°27'0 0.0
2016-May-28 02:32N 51°53' E 004°27'0 0.0
2016-May-28 01:32N 51°53' E 004°27'0 0.0
2016-May-28 00:32N 51°53' E 004°27'0 0.0
2016-May-27 23:32N 51°53' E 004°27'0 0.0
2016-May-27 22:32N 51°53' E 004°27'0 0.0
2016-May-27 21:32N 51°53' E 004°27'0 0.0
2016-May-27 20:29N 51°53' E 004°27'0 0.0
2016-May-27 19:32N 51°53' E 004°27'0 0.0
2016-May-27 18:32N 51°53' E 004°27'0 0.0
2016-May-27 17:32N 51°53' E 004°27'0 0.0
2016-May-27 16:29N 51°53' E 004°27'0 0.0
2016-May-27 15:32N 51°53' E 004°27'0 0.0
2016-May-27 14:29N 51°53' E 004°27'0 0.0
2016-May-27 13:33N 51°53' E 004°27'2 2.2
2016-May-27 12:33N 51°54' E 004°24'7 6.6
2016-May-27 11:33N 51°55' E 004°14'6 6.0
2016-May-27 10:33N 51°59' E 004°06'7 6.6
2016-May-27 09:33N 51°60' E 003°55'8 7.7
2016-May-27 08:31N 51°58' E 003°42'19 9.0
2016-May-27 06:25N 51°52' E 003°13'37 9.5
2016-May-27 02:32N 51°33' E 002°23'9 9.4
2016-May-27 01:34N 51°25' E 002°14'8 8.5
2016-May-27 00:33N 51°18' E 002°07'8 7.5
2016-May-26 23:33N 51°12' E 001°59'7 6.9
2016-May-26 22:33N 51°08' E 001°51'7 6.6
2016-May-26 21:33N 51°03' E 001°43'7 6.5
2016-May-26 20:33N 50°58' E 001°36'7 6.9
2016-May-26 19:33N 50°53' E 001°29'8 8.1
2016-May-26 18:34N 50°46' E 001°23'45 8.5
2016-May-26 13:12N 50°25' E 000°20'710.2
2016-May-26 12:32N 50°23' E 000°10'1010.6
2016-May-26 11:34N 50°20' W 000°06'1111.1
2016-May-26 10:33N 50°17' W 000°22'1111.0
2016-May-26 09:33N 50°13' W 000°39'  
Track history (hours):
 
Tides and Currents Weather Stations Pressure Air Temp Water Temp Dewpoint Dewpoint Depression Visibility Wind Speed Wind Dir Waves Ship Positions

Ida

Last reported at 2016-May-31 13:33 UTC. Time now 2016-May-31 14:15 UTC.
Position N 52°24' E 004°52'.

Length 82 m; draft 3 m.

Type: Cargo ship. MMSI: 210319000.

Date/timePositionNaut miles runAvg speedWind from/ knotsBaromVisibWave heightAir tempDewpointWater temp
2016-May-31 13:33N 52°24' E 004°52'0 0.0
2016-May-31 12:33N 52°24' E 004°52'0 0.0
2016-May-31 11:33N 52°24' E 004°52'0 0.0
2016-May-31 10:33N 52°24' E 004°52'0 0.0
2016-May-31 09:33N 52°24' E 004°52'0 0.0
2016-May-31 08:33N 52°24' E 004°52'0 0.0
2016-May-31 07:33N 52°24' E 004°52'6 6.2
2016-May-31 06:34N 52°26' E 004°43'12 6.1
2016-May-31 04:33N 52°28' E 004°23'8 7.8
2016-May-31 03:33N 52°29' E 004°10'9 3.9
2016-May-31 01:15N 52°35' E 003°59'7 4.0
2016-May-30 23:29N 52°28' E 003°54'9 3.7
2016-May-30 21:03N 52°19' E 003°52'3 3.8
2016-May-30 20:23N 52°17' E 003°52'3 3.5
2016-May-30 19:29N 52°14' E 003°53'3 3.1
2016-May-30 18:32N 52°11' E 003°54'3 2.7
2016-May-30 17:33N 52°08' E 003°55'3 2.8
2016-May-30 16:33N 52°05' E 003°56'3 3.3
2016-May-30 15:34N 52°03' E 003°58'5 4.7
2016-May-30 14:33N 51°59' E 004°04'1010.5
2016-May-30 13:33N 51°54' E 004°18'6 5.5
2016-May-30 12:32N 51°53' E 004°27'0 0.0
2016-May-30 11:29N 51°53' E 004°27'0 0.0
2016-May-30 10:32N 51°53' E 004°27'0 0.0
2016-May-30 09:32N 51°53' E 004°27'0 0.0
2016-May-30 08:32N 51°53' E 004°28'0 0.0
2016-May-30 07:32N 51°53' E 004°27'0 0.0
2016-May-30 06:32N 51°53' E 004°27'0 0.0
2016-May-30 05:29N 51°53' E 004°27'0 0.0
2016-May-30 04:32N 51°53' E 004°27'0 0.0
2016-May-30 03:32N 51°53' E 004°27'0 0.0
2016-May-30 02:32N 51°53' E 004°27'0 0.0
2016-May-30 01:32N 51°53' E 004°27'0 0.0
2016-May-30 00:32N 51°53' E 004°27'0 0.0
2016-May-29 23:26N 51°53' E 004°27'0 0.0
2016-May-29 22:29N 51°53' E 004°28'0 0.0
2016-May-29 21:29N 51°53' E 004°27'0 0.0
2016-May-29 20:32N 51°53' E 004°27'0 0.0
2016-May-29 19:32N 51°53' E 004°27'0 0.0
2016-May-29 18:32N 51°53' E 004°27'0 0.0
2016-May-29 17:32N 51°53' E 004°27'0 0.0
2016-May-29 16:32N 51°53' E 004°27'0 0.0
2016-May-29 15:32N 51°53' E 004°27'0 0.0
2016-May-29 14:26N 51°53' E 004°27'0 0.0
2016-May-29 13:26N 51°53' E 004°27'0 0.0
2016-May-29 12:29N 51°53' E 004°27'0 0.0
2016-May-29 11:32N 51°53' E 004°27'0 0.0
2016-May-29 10:23N 51°53' E 004°27'0 0.0
2016-May-29 09:32N 51°53' E 004°27'0 0.0
2016-May-29 08:32N 51°53' E 004°27'0 0.0
2016-May-29 07:32N 51°53' E 004°27'0 0.0
2016-May-29 06:29N 51°53' E 004°27'0 0.0
2016-May-29 05:32N 51°53' E 004°27'0 0.0
2016-May-29 04:32N 51°53' E 004°27'0 0.0
2016-May-29 03:26N 51°53' E 004°27'0 0.0
2016-May-29 02:32N 51°53' E 004°27'0 0.0
2016-May-29 01:32N 51°53' E 004°27'0 0.0
2016-May-29 00:32N 51°53' E 004°27'0 0.0
2016-May-28 23:29N 51°53' E 004°27'0 0.0
2016-May-28 22:32N 51°53' E 004°27'0 0.0
2016-May-28 21:29N 51°53' E 004°27'0 0.0
2016-May-28 20:32N 51°53' E 004°27'0 0.0
2016-May-28 19:32N 51°53' E 004°27'0 0.0
2016-May-28 18:26N 51°53' E 004°27'0 0.0
2016-May-28 17:32N 51°53' E 004°27'0 0.0
2016-May-28 16:29N 51°53' E 004°27'0 0.0
2016-May-28 15:29N 51°53' E 004°27'0 0.0
2016-May-28 14:32N 51°53' E 004°27'0 0.0
2016-May-28 13:32N 51°53' E 004°27'0 0.0
2016-May-28 12:32N 51°53' E 004°27'0 0.0
2016-May-28 11:32N 51°53' E 004°27'0 0.0
2016-May-28 10:32N 51°53' E 004°27'0 0.0
2016-May-28 09:32N 51°53' E 004°27'0 0.0
2016-May-28 08:32N 51°53' E 004°27'0 0.0
2016-May-28 07:29N 51°53' E 004°27'0 0.0
2016-May-28 06:32N 51°53' E 004°27'0 0.0
2016-May-28 05:32N 51°53' E 004°27'0 0.0
2016-May-28 04:32N 51°53' E 004°27'0 0.0
2016-May-28 03:29N 51°53' E 004°27'0 0.0
2016-May-28 02:32N 51°53' E 004°27'0 0.0
2016-May-28 01:32N 51°53' E 004°27'0 0.0
2016-May-28 00:32N 51°53' E 004°27'0 0.0
2016-May-27 23:32N 51°53' E 004°27'0 0.0
2016-May-27 22:32N 51°53' E 004°27'0 0.0
2016-May-27 21:32N 51°53' E 004°27'0 0.0
2016-May-27 20:29N 51°53' E 004°27'0 0.0
2016-May-27 19:32N 51°53' E 004°27'0 0.0
2016-May-27 18:32N 51°53' E 004°27'0 0.0
2016-May-27 17:32N 51°53' E 004°27'0 0.0
2016-May-27 16:29N 51°53' E 004°27'0 0.0
2016-May-27 15:32N 51°53' E 004°27'0 0.0
2016-May-27 14:29N 51°53' E 004°27'0 0.0
2016-May-27 13:33N 51°53' E 004°27'2 2.2
2016-May-27 12:33N 51°54' E 004°24'7 6.6
2016-May-27 11:33N 51°55' E 004°14'6 6.0
2016-May-27 10:33N 51°59' E 004°06'7 6.6
2016-May-27 09:33N 51°60' E 003°55'8 7.7
2016-May-27 08:31N 51°58' E 003°42'19 9.0
2016-May-27 06:25N 51°52' E 003°13'37 9.5
2016-May-27 02:32N 51°33' E 002°23'9 9.4
2016-May-27 01:34N 51°25' E 002°14'8 8.5
2016-May-27 00:33N 51°18' E 002°07'8 7.5
2016-May-26 23:33N 51°12' E 001°59'7 6.9
2016-May-26 22:33N 51°08' E 001°51'7 6.6
2016-May-26 21:33N 51°03' E 001°43'7 6.5
2016-May-26 20:33N 50°58' E 001°36'7 6.9
2016-May-26 19:33N 50°53' E 001°29'8 8.1
2016-May-26 18:34N 50°46' E 001°23'45 8.5
2016-May-26 13:12N 50°25' E 000°20'710.2
2016-May-26 12:32N 50°23' E 000°10'1010.6
2016-May-26 11:34N 50°20' W 000°06'1111.1
2016-May-26 10:33N 50°17' W 000°22'1111.0
2016-May-26 09:33N 50°13' W 000°39'  

Dump ship's entire track history